Time;durP1;ratioP1;P1;durP2;ratioP2;P2;SDS_P1;SDS_P2;PMS_P1;PMS_P2;Temp;Humidity;BMP_temperature;BMP_pressure;BME280_temperature;BME280_humidity;BME280_pressure;Samples;Min_cycle;Max_cycle;Signal;HPM_P1;HPM_P2
2021/07/04 00:04:49;;;;;;;5.88;4.75;;;;;;;;;;10289093;28;20138;-79
2021/07/04 00:09:51;;;;;;;5.88;4.72;;;;;;;;;;10288642;28;20130;-79
2021/07/04 00:14:52;;;;;;;6.90;5.07;;;;;;;;;;10270792;28;20086;-79
2021/07/04 00:19:54;;;;;;;7.03;5.10;;;;;;;;;;10288160;28;20074;-79
2021/07/04 00:24:56;;;;;;;5.90;4.55;;;;;;;;;;10271197;28;20101;-80
2021/07/04 00:29:57;;;;;;;6.47;4.80;;;;;;;;;;10270863;28;20129;-80
2021/07/04 00:34:59;;;;;;;6.80;4.80;;;;;;;;;;10270370;28;20101;-79
2021/07/04 00:40:00;;;;;;;6.00;4.50;;;;;;;;;;10287307;28;20086;-79
2021/07/04 00:45:04;;;;;;;6.72;5.00;;;;;;;;;;10286597;28;20055;-79
2021/07/04 00:50:06;;;;;;;5.45;4.63;;;;;;;;;;10286389;28;20145;-80
2021/07/04 00:55:09;;;;;;;5.80;4.75;;;;;;;;;;10286518;28;20157;-79
2021/07/04 01:00:12;;;;;;;7.60;5.10;;;;;;;;;;10285399;28;20082;-79
2021/07/04 01:05:18;;;;;;;9.70;5.55;;;;;;;;;;10285026;28;20082;-80
2021/07/04 01:10:22;;;;;;;8.73;6.30;;;;;;;;;;10285797;28;20400;-80
2021/07/04 01:15:25;;;;;;;8.05;5.55;;;;;;;;;;10285392;28;20137;-80
2021/07/04 01:20:28;;;;;;;7.95;6.25;;;;;;;;;;10285630;28;20086;-80
2021/07/04 01:25:31;;;;;;;7.88;5.45;;;;;;;;;;10299496;28;20134;-80
2021/07/04 01:30:33;;;;;;;9.63;6.22;;;;;;;;;;10285303;28;20089;-79
2021/07/04 01:35:35;;;;;;;8.70;6.75;;;;;;;;;;10284467;28;20507;-79
2021/07/04 01:40:36;;;;;;;7.55;6.20;;;;;;;;;;10284957;28;20126;-79
2021/07/04 01:45:39;;;;;;;8.25;5.97;;;;;;;;;;10285216;28;20198;-79
2021/07/04 01:50:43;;;;;;;8.25;5.68;;;;;;;;;;10284048;28;20133;-79
2021/07/04 01:55:45;;;;;;;7.60;6.03;;;;;;;;;;10283458;28;20055;-80
2021/07/04 02:00:47;;;;;;;9.05;7.53;;;;;;;;;;10284543;28;20560;-80
2021/07/04 02:05:48;;;;;;;9.57;7.00;;;;;;;;;;10291318;28;20084;-80
2021/07/04 02:10:50;;;;;;;8.50;6.38;;;;;;;;;;10274356;28;20130;-79
2021/07/04 02:15:52;;;;;;;7.25;6.00;;;;;;;;;;10290820;28;20082;-79
2021/07/04 02:20:54;;;;;;;9.50;6.00;;;;;;;;;;10289169;28;20138;-80
2021/07/04 02:25:57;;;;;;;11.20;6.60;;;;;;;;;;10289576;28;20078;-80
2021/07/04 02:30:58;;;;;;;11.30;7.00;;;;;;;;;;10290743;28;20086;-80
2021/07/04 02:36:00;;;;;;;10.20;6.28;;;;;;;;;;10291126;28;20043;-80
2021/07/04 02:41:02;;;;;;;10.43;5.90;;;;;;;;;;10303871;28;20054;-79
2021/07/04 02:46:03;;;;;;;10.35;7.03;;;;;;;;;;10303568;28;20055;-79
2021/07/04 02:51:05;;;;;;;9.93;6.97;;;;;;;;;;10286675;28;20157;-79
2021/07/04 02:56:07;;;;;;;10.63;6.78;;;;;;;;;;10303641;28;20089;-79
2021/07/04 03:01:08;;;;;;;10.63;6.43;;;;;;;;;;10303611;28;20133;-79
2021/07/04 03:06:10;;;;;;;8.57;6.75;;;;;;;;;;10298011;28;20082;-80
2021/07/04 03:11:11;;;;;;;9.82;7.97;;;;;;;;;;10297315;28;20136;-80
2021/07/04 03:16:13;;;;;;;8.75;6.88;;;;;;;;;;10295829;28;20101;-80
2021/07/04 03:21:14;;;;;;;10.02;6.50;;;;;;;;;;10279764;28;20061;-80
2021/07/04 03:26:16;;;;;;;8.80;7.00;;;;;;;;;;10296413;28;20082;-79
2021/07/04 03:31:17;;;;;;;9.18;6.60;;;;;;;;;;10310021;28;20125;-80
2021/07/04 03:36:19;;;;;;;8.80;6.32;;;;;;;;;;10296911;28;20122;-80
2021/07/04 03:41:21;;;;;;;8.68;6.45;;;;;;;;;;10296036;28;20086;-80
2021/07/04 03:46:22;;;;;;;7.57;6.65;;;;;;;;;;10295549;28;20477;-80
2021/07/04 03:51:24;;;;;;;7.68;6.30;;;;;;;;;;10305109;28;20070;-80
2021/07/04 03:56:26;;;;;;;7.95;6.35;;;;;;;;;;10288036;28;20492;-80
2021/07/04 04:01:27;;;;;;;10.70;6.97;;;;;;;;;;10288858;28;20132;-80
2021/07/04 04:06:29;;;;;;;8.52;6.90;;;;;;;;;;10288632;28;20050;-80
2021/07/04 04:11:30;;;;;;;7.25;6.03;;;;;;;;;;10287870;28;20059;-80
2021/07/04 04:16:32;;;;;;;9.25;6.63;;;;;;;;;;10288799;28;20126;-80
2021/07/04 04:21:33;;;;;;;8.40;6.70;;;;;;;;;;10271569;28;20057;-80
2021/07/04 04:26:35;;;;;;;7.38;6.57;;;;;;;;;;10271128;28;20082;-80
2021/07/04 04:31:37;;;;;;;7.82;6.05;;;;;;;;;;10288343;28;20086;-80
2021/07/04 04:36:38;;;;;;;11.02;6.93;;;;;;;;;;10286571;28;20055;-80
2021/07/04 04:41:40;;;;;;;8.30;6.60;;;;;;;;;;10287502;28;20082;-80
2021/07/04 04:46:53;;;;;;;9.60;6.93;;;;;;;;;;10284945;28;20113;-80
2021/07/04 04:51:54;;;;;;;8.73;7.15;;;;;;;;;;10287542;28;20082;-80
2021/07/04 04:56:56;;;;;;;7.47;5.88;;;;;;;;;;10287142;28;20085;-80
2021/07/04 05:01:57;;;;;;;7.00;6.10;;;;;;;;;;10286189;28;20455;-79
2021/07/04 05:06:59;;;;;;;11.70;6.93;;;;;;;;;;10286922;28;20129;-79
2021/07/04 05:12:01;;;;;;;8.95;6.63;;;;;;;;;;10286709;28;20082;-80
2021/07/04 05:17:02;;;;;;;8.60;6.38;;;;;;;;;;10286733;28;20105;-80
2021/07/04 05:22:04;;;;;;;6.90;5.97;;;;;;;;;;10284620;28;20055;-80
2021/07/04 05:27:06;;;;;;;10.45;6.60;;;;;;;;;;10286233;28;20090;-80
2021/07/04 05:32:07;;;;;;;10.98;7.05;;;;;;;;;;10284469;28;20520;-80
2021/07/04 05:37:09;;;;;;;8.18;6.13;;;;;;;;;;10285492;28;20134;-80
2021/07/04 05:42:11;;;;;;;11.65;6.38;;;;;;;;;;10285248;28;20532;-80
2021/07/04 05:47:12;;;;;;;10.25;6.85;;;;;;;;;;10285147;28;20125;-80
2021/07/04 05:52:14;;;;;;;9.15;6.65;;;;;;;;;;10285236;28;20149;-80
2021/07/04 05:57:15;;;;;;;10.80;6.90;;;;;;;;;;10284597;28;20054;-80
2021/07/04 06:02:17;;;;;;;8.32;5.72;;;;;;;;;;10284920;28;20090;-80
2021/07/04 06:07:19;;;;;;;7.68;6.70;;;;;;;;;;10283216;28;20057;-80
2021/07/04 06:12:20;;;;;;;11.13;6.75;;;;;;;;;;10283465;28;20438;-80
2021/07/04 06:17:22;;;;;;;11.98;7.13;;;;;;;;;;10285145;28;20174;-80
2021/07/04 06:22:23;;;;;;;10.30;6.80;;;;;;;;;;10284268;28;20141;-80
2021/07/04 06:27:25;;;;;;;9.98;7.03;;;;;;;;;;10284001;28;20086;-80
2021/07/04 06:32:28;;;;;;;9.98;7.97;;;;;;;;;;10283987;28;20063;-80
2021/07/04 06:37:29;;;;;;;11.02;8.63;;;;;;;;;;10284653;28;20121;-80
2021/07/04 06:42:31;;;;;;;10.07;8.30;;;;;;;;;;10283826;28;20463;-80
2021/07/04 06:47:32;;;;;;;10.50;7.07;;;;;;;;;;10284217;28;20142;-80
2021/07/04 06:52:34;;;;;;;9.77;7.95;;;;;;;;;;10284624;28;20829;-79
2021/07/04 06:57:36;;;;;;;11.63;8.35;;;;;;;;;;10284171;28;20051;-80
2021/07/04 07:02:38;;;;;;;10.27;7.93;;;;;;;;;;10284118;28;20055;-80
2021/07/04 07:07:41;;;;;;;10.40;8.38;;;;;;;;;;10285112;28;20516;-80
2021/07/04 07:12:42;;;;;;;12.55;8.70;;;;;;;;;;10287206;28;20058;-79
2021/07/04 07:17:45;;;;;;;12.35;8.55;;;;;;;;;;10283921;28;20042;-80
2021/07/04 07:22:46;;;;;;;11.40;7.72;;;;;;;;;;10283159;28;20133;-80
2021/07/04 07:27:48;;;;;;;9.02;7.50;;;;;;;;;;10290264;28;20740;-80
2021/07/04 07:32:50;;;;;;;9.57;6.65;;;;;;;;;;10273610;28;20130;-80
2021/07/04 07:37:52;;;;;;;8.55;6.25;;;;;;;;;;10290269;28;20082;-80
2021/07/04 07:42:54;;;;;;;9.40;7.40;;;;;;;;;;10290340;28;20055;-80
2021/07/04 07:47:55;;;;;;;12.10;7.15;;;;;;;;;;10289746;28;20082;-80
2021/07/04 07:53:06;;;;;;;9.40;7.85;;;;;;;;;;10280792;28;20055;-80
2021/07/04 07:58:08;;;;;;;10.95;7.53;;;;;;;;;;10289698;28;20054;-80
2021/07/04 08:03:12;;;;;;;9.63;6.80;;;;;;;;;;10289987;28;20077;-80
2021/07/04 08:08:13;;;;;;;8.70;6.30;;;;;;;;;;10289248;28;20081;-81
2021/07/04 08:13:25;;;;;;;7.88;6.05;;;;;;;;;;10289029;28;20098;-80
2021/07/04 08:18:27;;;;;;;8.63;5.90;;;;;;;;;;10289298;28;20046;-80
2021/07/04 08:23:29;;;;;;;10.98;6.45;;;;;;;;;;10289042;28;20129;-80
2021/07/04 08:28:30;;;;;;;6.80;6.10;;;;;;;;;;10288968;28;20568;-80
2021/07/04 08:33:32;;;;;;;7.93;6.05;;;;;;;;;;10288370;28;20113;-80
2021/07/04 08:38:33;;;;;;;8.60;6.70;;;;;;;;;;10287999;28;20105;-80
2021/07/04 08:43:36;;;;;;;8.98;6.60;;;;;;;;;;10286171;28;20113;-79
2021/07/04 08:48:39;;;;;;;10.85;6.65;;;;;;;;;;10283386;28;20138;-80
2021/07/04 08:53:41;;;;;;;9.77;7.03;;;;;;;;;;10283010;28;20126;-80
2021/07/04 08:58:42;;;;;;;7.63;6.70;;;;;;;;;;10284094;28;20370;-80
2021/07/04 09:04:09;;;;;;;11.55;6.75;;;;;;;;;;10285437;28;20046;-80
2021/07/04 09:09:31;;;;;;;8.75;6.70;;;;;;;;;;10283980;28;20554;-80
2021/07/04 09:14:37;;;;;;;10.88;6.40;;;;;;;;;;10285008;28;20142;-80
2021/07/04 09:19:59;;;;;;;7.55;5.53;;;;;;;;;;10285045;28;20065;-80
2021/07/04 09:25:07;;;;;;;9.23;5.80;;;;;;;;;;10283883;28;20057;-80
2021/07/04 09:30:10;;;;;;;6.50;5.33;;;;;;;;;;10283253;28;20066;-80
2021/07/04 09:35:17;;;;;;;10.32;5.20;;;;;;;;;;10283298;28;20473;-80
2021/07/04 09:40:22;;;;;;;7.82;5.25;;;;;;;;;;10283326;28;20065;-80
2021/07/04 09:45:24;;;;;;;8.65;6.03;;;;;;;;;;10317796;28;20058;-80
2021/07/04 09:50:26;;;;;;;10.02;5.53;;;;;;;;;;10324390;28;20177;-80
2021/07/04 09:55:29;;;;;;;7.95;6.22;;;;;;;;;;10298663;28;20134;-80
2021/07/04 10:00:32;;;;;;;9.23;6.43;;;;;;;;;;10300758;28;20578;-80
2021/07/04 10:05:34;;;;;;;8.15;5.72;;;;;;;;;;10306547;28;20129;-80
2021/07/04 10:10:36;;;;;;;6.88;5.68;;;;;;;;;;10323248;28;20142;-80
2021/07/04 10:15:39;;;;;;;6.85;5.35;;;;;;;;;;10322044;28;20089;-80
2021/07/04 10:20:41;;;;;;;7.95;4.95;;;;;;;;;;10321500;28;20042;-80
2021/07/04 10:25:43;;;;;;;6.85;4.88;;;;;;;;;;10286435;28;20130;-80
2021/07/04 10:30:47;;;;;;;8.88;5.07;;;;;;;;;;10282458;28;20133;-80
2021/07/04 10:35:58;;;;;;;6.97;5.03;;;;;;;;;;10283129;28;20086;-80
2021/07/04 10:41:07;;;;;;;6.15;5.07;;;;;;;;;;10257064;28;20142;-80
2021/07/04 10:46:08;;;;;;;6.90;5.95;;;;;;;;;;10242713;28;20139;-80
2021/07/04 10:51:15;;;;;;;7.00;5.15;;;;;;;;;;10242312;29;20047;-80
2021/07/04 10:56:35;;;;;;;8.02;4.07;;;;;;;;;;10242751;28;20075;-80
2021/07/04 11:01:46;;;;;;;22.67;5.57;;;;;;;;;;10250149;28;20425;-80
2021/07/04 11:06:54;;;;;;;23.80;5.97;;;;;;;;;;10251424;29;20050;-80
2021/07/04 11:12:16;;;;;;;8.40;4.40;;;;;;;;;;10264749;28;20047;-81
2021/07/04 11:17:21;;;;;;;8.15;3.83;;;;;;;;;;10250577;28;20059;-82
2021/07/04 11:22:42;;;;;;;6.97;3.78;;;;;;;;;;10250125;28;20066;-82
2021/07/04 11:27:44;;;;;;;11.00;6.93;;;;;;;;;;10274835;28;20149;-82
2021/07/04 11:32:46;;;;;;;32.70;9.57;;;;;;;;;;10286912;28;20105;-82
2021/07/04 11:37:47;;;;;;;10.13;5.80;;;;;;;;;;10297221;28;20142;-81
2021/07/04 11:42:49;;;;;;;8.02;5.35;;;;;;;;;;10329547;28;20046;-81
2021/07/04 11:47:54;;;;;;;9.15;5.28;;;;;;;;;;10329405;28;20491;-81
2021/07/04 11:53:05;;;;;;;8.13;5.28;;;;;;;;;;10312829;28;20449;-81
2021/07/04 11:58:07;;;;;;;7.63;4.65;;;;;;;;;;10289357;28;20162;-81
2021/07/04 12:03:08;;;;;;;6.32;3.55;;;;;;;;;;10289103;28;20133;-81
2021/07/04 12:08:10;;;;;;;5.85;3.75;;;;;;;;;;10317598;28;20677;-81
2021/07/04 12:13:13;;;;;;;5.32;3.70;;;;;;;;;;10310669;28;20055;-81
2021/07/04 12:18:15;;;;;;;6.28;3.95;;;;;;;;;;10270547;28;20061;-81
2021/07/04 12:23:17;;;;;;;7.40;4.57;;;;;;;;;;10288355;28;20254;-81
2021/07/04 12:28:19;;;;;;;5.75;4.07;;;;;;;;;;10270973;28;20069;-81
2021/07/04 12:33:26;;;;;;;6.65;4.20;;;;;;;;;;10287899;28;20043;-81
2021/07/04 12:38:36;;;;;;;8.98;4.13;;;;;;;;;;10319631;28;20050;-81
2021/07/04 12:43:42;;;;;;;5.28;3.90;;;;;;;;;;10326990;28;20508;-81
2021/07/04 12:48:45;;;;;;;9.75;4.43;;;;;;;;;;10327477;28;20089;-82
2021/07/04 12:53:47;;;;;;;7.97;4.53;;;;;;;;;;10305954;28;20043;-81
2021/07/04 12:58:57;;;;;;;7.18;4.18;;;;;;;;;;10321879;28;20395;-81
2021/07/04 13:04:04;;;;;;;5.85;3.53;;;;;;;;;;10326271;28;20050;-81
2021/07/04 13:09:07;;;;;;;5.32;2.90;;;;;;;;;;10326186;28;20133;-81
2021/07/04 13:14:10;;;;;;;5.65;2.65;;;;;;;;;;10308355;28;20527;-81
2021/07/04 13:19:19;;;;;;;4.03;2.15;;;;;;;;;;10306305;28;20134;-81
2021/07/04 13:24:44;;;;;;;4.97;2.13;;;;;;;;;;10282235;28;20559;-82
2021/07/04 13:29:46;;;;;;;11.23;2.58;;;;;;;;;;10280057;28;20142;-82
2021/07/04 13:34:50;;;;;;;3.42;1.70;;;;;;;;;;10276654;28;20050;-82
2021/07/04 13:39:51;;;;;;;5.75;1.77;;;;;;;;;;10285224;28;20488;-82
2021/07/04 13:44:54;;;;;;;3.92;1.80;;;;;;;;;;10284590;28;20114;-82
2021/07/04 13:49:56;;;;;;;3.42;1.60;;;;;;;;;;10285785;28;20130;-82
2021/07/04 13:54:58;;;;;;;2.30;1.40;;;;;;;;;;10265961;28;20083;-82
2021/07/04 14:00:00;;;;;;;5.78;1.60;;;;;;;;;;10266913;28;20049;-81
2021/07/04 14:05:02;;;;;;;2.83;1.58;;;;;;;;;;10284658;28;20047;-81
2021/07/04 14:10:05;;;;;;;2.88;1.40;;;;;;;;;;10284686;28;20055;-81
2021/07/04 14:15:07;;;;;;;4.32;1.58;;;;;;;;;;10283902;28;20126;-81
2021/07/04 14:20:10;;;;;;;2.42;1.50;;;;;;;;;;10284826;28;20070;-81
2021/07/04 14:25:27;;;;;;;2.65;1.42;;;;;;;;;;10283936;28;20084;-81
2021/07/04 14:30:29;;;;;;;3.15;1.50;;;;;;;;;;10283707;28;20090;-81
2021/07/04 14:35:30;;;;;;;5.13;1.55;;;;;;;;;;10275205;28;20141;-81
2021/07/04 14:40:32;;;;;;;2.58;1.48;;;;;;;;;;10276145;28;20142;-81
2021/07/04 14:45:34;;;;;;;6.25;2.00;;;;;;;;;;10281253;28;20086;-81
2021/07/04 14:50:37;;;;;;;5.00;2.30;;;;;;;;;;10294259;28;20090;-81
2021/07/04 14:55:40;;;;;;;4.85;1.80;;;;;;;;;;10281188;28;20531;-81
2021/07/04 15:00:42;;;;;;;2.80;1.60;;;;;;;;;;10281948;28;20062;-81
2021/07/04 15:05:43;;;;;;;4.00;1.80;;;;;;;;;;10281612;28;20049;-79
2021/07/04 15:10:45;;;;;;;4.40;1.98;;;;;;;;;;10279188;28;20097;-80
2021/07/04 15:15:47;;;;;;;3.72;1.90;;;;;;;;;;10281513;28;20573;-79
2021/07/04 15:20:49;;;;;;;3.20;1.80;;;;;;;;;;10281946;28;20051;-79
2021/07/04 15:25:50;;;;;;;4.50;2.00;;;;;;;;;;10281489;28;20534;-79
2021/07/04 15:30:52;;;;;;;3.33;1.90;;;;;;;;;;10280616;28;20101;-79
2021/07/04 15:35:54;;;;;;;4.97;2.00;;;;;;;;;;10261061;28;20503;-78
2021/07/04 15:40:56;;;;;;;6.05;2.30;;;;;;;;;;10270769;28;20137;-80
2021/07/04 15:45:58;;;;;;;5.18;2.13;;;;;;;;;;10280710;28;20138;-79
2021/07/04 15:50:59;;;;;;;5.80;1.75;;;;;;;;;;10287865;28;20054;-79
2021/07/04 15:56:03;;;;;;;3.65;2.00;;;;;;;;;;10287502;28;20129;-79
2021/07/04 16:01:05;;;;;;;4.43;2.00;;;;;;;;;;10288736;28;20078;-79
2021/07/04 16:06:06;;;;;;;6.13;2.10;;;;;;;;;;10281140;28;20142;-79
2021/07/04 16:11:08;;;;;;;6.65;1.90;;;;;;;;;;10286208;28;20850;-79
2021/07/04 16:16:10;;;;;;;3.22;1.45;;;;;;;;;;10287020;28;20126;-78
2021/07/04 16:21:12;;;;;;;2.83;1.60;;;;;;;;;;10299312;28;20831;-79
2021/07/04 16:26:13;;;;;;;1.85;1.30;;;;;;;;;;10286474;28;20138;-79
2021/07/04 16:31:15;;;;;;;1.65;1.30;;;;;;;;;;10285900;28;20154;-79
2021/07/04 16:36:16;;;;;;;5.55;1.10;;;;;;;;;;10266522;28;20428;-79
2021/07/04 16:41:28;;;;;;;0.95;0.90;;;;;;;;;;10280956;28;20059;-79
2021/07/04 16:46:31;;;;;;;2.28;1.00;;;;;;;;;;10285616;28;20142;-79
2021/07/04 16:51:34;;;;;;;0.88;0.88;;;;;;;;;;10284992;28;20404;-79
2021/07/04 16:56:36;;;;;;;1.80;1.10;;;;;;;;;;10285563;28;20134;-78
2021/07/04 17:01:38;;;;;;;1.70;0.93;;;;;;;;;;10274535;28;20109;-79
2021/07/04 17:06:40;;;;;;;1.45;1.00;;;;;;;;;;10283576;28;20408;-79
2021/07/04 17:11:50;;;;;;;1.80;1.00;;;;;;;;;;10284370;28;20050;-80
2021/07/04 17:16:52;;;;;;;2.45;1.10;;;;;;;;;;10282316;28;20157;-79
2021/07/04 17:21:55;;;;;;;3.35;1.10;;;;;;;;;;10262956;28;20043;-79
2021/07/04 17:26:57;;;;;;;1.23;0.85;;;;;;;;;;10271140;28;20130;-78
2021/07/04 17:31:59;;;;;;;1.75;1.10;;;;;;;;;;10282288;28;20135;-79
2021/07/04 17:37:00;;;;;;;2.83;1.20;;;;;;;;;;10278886;28;20129;-79
2021/07/04 17:42:03;;;;;;;1.10;1.00;;;;;;;;;;10276372;28;20045;-79
2021/07/04 17:47:05;;;;;;;1.17;1.00;;;;;;;;;;10279691;28;20129;-79
2021/07/04 17:52:07;;;;;;;0.90;0.90;;;;;;;;;;10281939;28;20601;-79
2021/07/04 17:57:11;;;;;;;1.20;0.90;;;;;;;;;;10288650;28;20145;-79
2021/07/04 18:02:14;;;;;;;2.85;1.00;;;;;;;;;;10264781;28;20548;-79
2021/07/04 18:07:16;;;;;;;1.20;0.95;;;;;;;;;;10280600;28;20081;-79
2021/07/04 18:12:17;;;;;;;1.50;1.20;;;;;;;;;;10279272;28;20050;-79
2021/07/04 18:17:19;;;;;;;2.33;1.10;;;;;;;;;;10279143;28;20892;-79
2021/07/04 18:22:21;;;;;;;1.85;1.02;;;;;;;;;;10279750;28;20559;-79
2021/07/04 18:27:22;;;;;;;3.38;1.20;;;;;;;;;;10281101;28;20146;-82
2021/07/04 18:32:27;;;;;;;2.13;1.10;;;;;;;;;;10276199;28;20233;-83
2021/07/04 18:37:28;;;;;;;8.15;1.15;;;;;;;;;;10265494;28;20050;-83
2021/07/04 18:42:30;;;;;;;2.35;1.00;;;;;;;;;;10265828;28;20141;-82
2021/07/04 18:47:32;;;;;;;2.85;1.20;;;;;;;;;;10271819;28;20181;-83
2021/07/04 18:52:34;;;;;;;2.42;1.10;;;;;;;;;;10282281;28;20074;-84
2021/07/04 18:57:36;;;;;;;5.68;1.20;;;;;;;;;;10279376;28;20556;-84
2021/07/04 19:02:38;;;;;;;2.38;1.10;;;;;;;;;;10262174;28;20130;-79
2021/07/04 19:07:48;;;;;;;2.50;1.30;;;;;;;;;;10281213;28;20057;-79
2021/07/04 19:12:52;;;;;;;6.20;1.55;;;;;;;;;;10278967;28;20090;-77
2021/07/04 19:17:54;;;;;;;4.78;1.33;;;;;;;;;;10278263;28;20046;-77
2021/07/04 19:22:56;;;;;;;7.72;1.42;;;;;;;;;;10285851;28;20082;-77
2021/07/04 19:27:57;;;;;;;2.95;1.40;;;;;;;;;;10288628;28;20141;-78
2021/07/04 19:32:59;;;;;;;5.25;1.63;;;;;;;;;;10268346;28;20465;-79
2021/07/04 19:38:01;;;;;;;5.45;1.50;;;;;;;;;;10281540;28;20134;-79
2021/07/04 19:43:04;;;;;;;9.30;1.50;;;;;;;;;;10282615;28;20055;-79
2021/07/04 19:48:07;;;;;;;6.28;1.50;;;;;;;;;;10283521;28;20509;-79
2021/07/04 19:53:08;;;;;;;6.13;1.60;;;;;;;;;;10284636;28;20480;-79
2021/07/04 19:58:10;;;;;;;2.60;1.38;;;;;;;;;;10286167;28;20082;-79
2021/07/04 20:03:11;;;;;;;9.88;1.80;;;;;;;;;;10286389;28;20133;-79
2021/07/04 20:08:13;;;;;;;6.45;1.73;;;;;;;;;;10268865;28;20109;-79
2021/07/04 20:13:15;;;;;;;8.15;1.88;;;;;;;;;;10285292;28;20078;-79
2021/07/04 20:18:18;;;;;;;7.75;2.00;;;;;;;;;;10284607;28;20057;-80
2021/07/04 20:23:20;;;;;;;23.10;2.90;;;;;;;;;;10285565;28;20378;-79
2021/07/04 20:28:22;;;;;;;8.98;2.47;;;;;;;;;;10288093;28;20078;-80
2021/07/04 20:33:26;;;;;;;9.13;2.03;;;;;;;;;;10273000;28;20133;-78
2021/07/04 20:38:29;;;;;;;9.27;1.60;;;;;;;;;;10289928;28;20129;-78
2021/07/04 20:43:31;;;;;;;6.82;2.40;;;;;;;;;;10283783;28;20123;-78
2021/07/04 20:48:33;;;;;;;6.07;1.63;;;;;;;;;;10284540;28;20078;-78
2021/07/04 20:53:34;;;;;;;11.57;2.10;;;;;;;;;;10294759;28;20088;-78
2021/07/04 20:58:38;;;;;;;6.40;2.00;;;;;;;;;;10285961;28;20082;-78
2021/07/04 21:03:40;;;;;;;10.80;2.95;;;;;;;;;;10283524;28;20081;-78
2021/07/04 21:08:42;;;;;;;7.55;1.80;;;;;;;;;;10282797;28;20038;-78
2021/07/04 21:13:44;;;;;;;10.15;2.20;;;;;;;;;;10284693;28;20085;-78
2021/07/04 21:18:46;;;;;;;7.72;1.88;;;;;;;;;;10284756;28;20043;-78
2021/07/04 21:23:48;;;;;;;6.40;2.25;;;;;;;;;;10284394;28;20055;-78
2021/07/04 21:28:49;;;;;;;9.00;2.30;;;;;;;;;;10283580;28;20142;-78
2021/07/04 21:33:51;;;;;;;9.93;2.10;;;;;;;;;;10283673;28;20090;-78
2021/07/04 21:38:53;;;;;;;6.22;1.70;;;;;;;;;;10283485;28;20497;-78
2021/07/04 21:43:54;;;;;;;7.35;1.80;;;;;;;;;;10264357;28;20880;-78
2021/07/04 21:48:56;;;;;;;10.38;1.98;;;;;;;;;;10274918;28;20157;-78
2021/07/04 21:53:59;;;;;;;13.48;2.30;;;;;;;;;;10283127;28;20138;-78
2021/07/04 21:59:00;;;;;;;138.45;5.63;;;;;;;;;;10282867;28;20078;-78
2021/07/04 22:04:02;;;;;;;70.80;4.05;;;;;;;;;;10282319;28;20093;-78
2021/07/04 22:09:05;;;;;;;95.80;4.75;;;;;;;;;;10283172;28;20102;-78
2021/07/04 22:14:06;;;;;;;156.90;5.88;;;;;;;;;;10282654;28;20146;-78
2021/07/04 22:19:08;;;;;;;197.68;6.03;;;;;;;;;;10282439;28;20129;-78
2021/07/04 22:24:10;;;;;;;73.47;3.47;;;;;;;;;;10282646;28;20134;-79
2021/07/04 22:29:11;;;;;;;110.32;4.32;;;;;;;;;;10254782;28;20126;-78
2021/07/04 22:34:13;;;;;;;448.38;11.32;;;;;;;;;;10280764;28;20055;-78
2021/07/04 22:39:15;;;;;;;85.25;3.67;;;;;;;;;;10282227;28;20631;-78
2021/07/04 22:44:16;;;;;;;450.58;10.88;;;;;;;;;;10279635;28;20137;-78
2021/07/04 22:49:18;;;;;;;548.60;14.80;;;;;;;;;;10277982;28;20138;-78
2021/07/04 22:54:20;;;;;;;46.95;3.28;;;;;;;;;;10283342;28;20137;-78
2021/07/04 22:59:22;;;;;;;131.73;4.97;;;;;;;;;;10287782;28;20137;-78
2021/07/04 23:04:23;;;;;;;123.90;4.20;;;;;;;;;;10289557;28;20539;-78
2021/07/04 23:09:25;;;;;;;145.27;5.32;;;;;;;;;;10290097;28;20105;-78
2021/07/04 23:14:27;;;;;;;168.73;5.28;;;;;;;;;;10271454;28;20130;-78
2021/07/04 23:19:28;;;;;;;115.32;3.80;;;;;;;;;;10289838;28;20133;-78
2021/07/04 23:24:30;;;;;;;198.05;6.05;;;;;;;;;;10303972;28;20074;-78
2021/07/04 23:29:31;;;;;;;299.35;6.95;;;;;;;;;;10288346;28;20153;-78
2021/07/04 23:34:33;;;;;;;602.97;14.35;;;;;;;;;;10271913;28;20085;-78
2021/07/04 23:39:35;;;;;;;559.50;12.50;;;;;;;;;;10288247;28;20129;-78
2021/07/04 23:44:37;;;;;;;449.65;10.10;;;;;;;;;;10288810;28;20061;-78
2021/07/04 23:49:51;;;;;;;311.50;7.40;;;;;;;;;;10285539;28;20114;-78
2021/07/04 23:54:52;;;;;;;140.60;3.97;;;;;;;;;;10287515;28;20134;-79
2021/07/04 23:59:54;;;;;;;169.95;4.50;;;;;;;;;;10287212;28;20085;-79
